sensor_id;sensor_type;location;lat;lon;timestamp;temperature;humidity
4695;DHT22;2361;49.540;8.390;2023-06-24T00:01:16;21.90;89.90
4695;DHT22;2361;49.540;8.390;2023-06-24T00:03:43;21.90;90.10
4695;DHT22;2361;49.540;8.390;2023-06-24T00:06:13;21.90;90.30
4695;DHT22;2361;49.540;8.390;2023-06-24T00:08:45;21.90;90.40
4695;DHT22;2361;49.540;8.390;2023-06-24T00:11:12;21.90;90.60
4695;DHT22;2361;49.540;8.390;2023-06-24T00:13:41;22.00;90.70
4695;DHT22;2361;49.540;8.390;2023-06-24T00:16:09;21.90;90.90
4695;DHT22;2361;49.540;8.390;2023-06-24T00:18:37;22.00;91.00
4695;DHT22;2361;49.540;8.390;2023-06-24T00:21:08;22.00;91.20
4695;DHT22;2361;49.540;8.390;2023-06-24T00:23:35;21.90;91.30
4695;DHT22;2361;49.540;8.390;2023-06-24T00:26:02;21.90;91.40
4695;DHT22;2361;49.540;8.390;2023-06-24T00:28:29;21.90;91.60
4695;DHT22;2361;49.540;8.390;2023-06-24T00:30:56;22.00;91.70
4695;DHT22;2361;49.540;8.390;2023-06-24T00:33:23;22.00;91.70
4695;DHT22;2361;49.540;8.390;2023-06-24T00:35:50;22.00;91.80
4695;DHT22;2361;49.540;8.390;2023-06-24T00:38:17;22.00;92.00
4695;DHT22;2361;49.540;8.390;2023-06-24T00:40:44;22.00;92.30
4695;DHT22;2361;49.540;8.390;2023-06-24T00:43:13;21.90;92.30
4695;DHT22;2361;49.540;8.390;2023-06-24T00:45:39;21.90;92.40
4695;DHT22;2361;49.540;8.390;2023-06-24T00:48:07;21.90;92.60
4695;DHT22;2361;49.540;8.390;2023-06-24T00:50:34;21.90;92.70
4695;DHT22;2361;49.540;8.390;2023-06-24T00:53:03;22.00;92.90
4695;DHT22;2361;49.540;8.390;2023-06-24T00:55:30;21.90;93.00
4695;DHT22;2361;49.540;8.390;2023-06-24T00:57:57;21.90;93.00
4695;DHT22;2361;49.540;8.390;2023-06-24T01:00:26;21.90;93.10
4695;DHT22;2361;49.540;8.390;2023-06-24T01:02:53;21.80;93.10
4695;DHT22;2361;49.540;8.390;2023-06-24T01:05:20;21.80;93.10
4695;DHT22;2361;49.540;8.390;2023-06-24T01:07:51;21.80;93.20
4695;DHT22;2361;49.540;8.390;2023-06-24T01:10:23;21.70;93.30
4695;DHT22;2361;49.540;8.390;2023-06-24T01:12:50;21.70;93.30
4695;DHT22;2361;49.540;8.390;2023-06-24T01:15:18;21.70;93.50
4695;DHT22;2361;49.540;8.390;2023-06-24T01:18:02;21.70;93.60
4695;DHT22;2361;49.540;8.390;2023-06-24T01:21:03;21.70;93.70
4695;DHT22;2361;49.540;8.390;2023-06-24T01:31:59;21.50;94.00
4695;DHT22;2361;49.540;8.390;2023-06-24T01:34:59;21.50;94.20
4695;DHT22;2361;49.540;8.390;2023-06-24T01:37:45;21.50;94.30
4695;DHT22;2361;49.540;8.390;2023-06-24T01:40:37;21.50;94.20
4695;DHT22;2361;49.540;8.390;2023-06-24T01:43:08;21.40;94.30
4695;DHT22;2361;49.540;8.390;2023-06-24T01:45:45;21.30;94.60
4695;DHT22;2361;49.540;8.390;2023-06-24T01:48:18;21.30;94.80
4695;DHT22;2361;49.540;8.390;2023-06-24T01:51:00;21.10;95.10
4695;DHT22;2361;49.540;8.390;2023-06-24T01:53:34;21.00;95.60
4695;DHT22;2361;49.540;8.390;2023-06-24T01:56:07;20.90;96.20
4695;DHT22;2361;49.540;8.390;2023-06-24T01:58:37;20.90;96.30
4695;DHT22;2361;49.540;8.390;2023-06-24T02:01:05;20.90;96.70
4695;DHT22;2361;49.540;8.390;2023-06-24T02:03:33;20.90;96.90
4695;DHT22;2361;49.540;8.390;2023-06-24T02:06:02;20.80;97.20
4695;DHT22;2361;49.540;8.390;2023-06-24T02:08:33;20.80;97.50
4695;DHT22;2361;49.540;8.390;2023-06-24T02:11:04;20.90;97.70
4695;DHT22;2361;49.540;8.390;2023-06-24T02:13:32;20.90;97.70
4695;DHT22;2361;49.540;8.390;2023-06-24T02:16:04;21.00;97.90
4695;DHT22;2361;49.540;8.390;2023-06-24T02:18:35;21.00;97.90
4695;DHT22;2361;49.540;8.390;2023-06-24T02:21:03;21.00;97.90
4695;DHT22;2361;49.540;8.390;2023-06-24T02:23:31;21.00;98.10
4695;DHT22;2361;49.540;8.390;2023-06-24T02:26:01;21.10;98.10
4695;DHT22;2361;49.540;8.390;2023-06-24T02:28:29;21.10;98.00
4695;DHT22;2361;49.540;8.390;2023-06-24T02:30:58;21.10;98.10
4695;DHT22;2361;49.540;8.390;2023-06-24T02:33:25;21.10;98.20
4695;DHT22;2361;49.540;8.390;2023-06-24T02:35:53;21.00;98.20
4695;DHT22;2361;49.540;8.390;2023-06-24T02:38:20;20.90;98.50
4695;DHT22;2361;49.540;8.390;2023-06-24T02:40:47;20.90;98.80
4695;DHT22;2361;49.540;8.390;2023-06-24T02:43:18;20.70;98.90
4695;DHT22;2361;49.540;8.390;2023-06-24T02:45:46;20.60;99.40
4695;DHT22;2361;49.540;8.390;2023-06-24T02:48:14;20.50;99.90
4695;DHT22;2361;49.540;8.390;2023-06-24T02:50:41;20.50;99.90
4695;DHT22;2361;49.540;8.390;2023-06-24T02:53:11;20.40;99.90
4695;DHT22;2361;49.540;8.390;2023-06-24T02:55:40;20.40;99.90
4695;DHT22;2361;49.540;8.390;2023-06-24T02:58:09;20.30;99.90
4695;DHT22;2361;49.540;8.390;2023-06-24T03:00:37;20.30;99.90
4695;DHT22;2361;49.540;8.390;2023-06-24T03:03:05;20.20;99.90
4695;DHT22;2361;49.540;8.390;2023-06-24T03:05:34;20.30;99.90
4695;DHT22;2361;49.540;8.390;2023-06-24T03:08:02;20.30;99.90
4695;DHT22;2361;49.540;8.390;2023-06-24T03:10:32;20.40;99.80
4695;DHT22;2361;49.540;8.390;2023-06-24T03:12:59;20.40;99.80
4695;DHT22;2361;49.540;8.390;2023-06-24T03:15:26;20.50;99.50
4695;DHT22;2361;49.540;8.390;2023-06-24T03:17:56;20.50;99.60
4695;DHT22;2361;49.540;8.390;2023-06-24T03:20:23;20.50;99.30
4695;DHT22;2361;49.540;8.390;2023-06-24T03:22:50;20.40;99.30
4695;DHT22;2361;49.540;8.390;2023-06-24T03:25:19;20.30;99.70
4695;DHT22;2361;49.540;8.390;2023-06-24T03:27:46;20.20;99.90
4695;DHT22;2361;49.540;8.390;2023-06-24T03:30:13;20.30;99.70
4695;DHT22;2361;49.540;8.390;2023-06-24T03:32:42;20.20;99.80
4695;DHT22;2361;49.540;8.390;2023-06-24T03:35:13;20.10;99.90
4695;DHT22;2361;49.540;8.390;2023-06-24T03:37:41;20.10;99.90
4695;DHT22;2361;49.540;8.390;2023-06-24T03:40:08;20.10;99.90
4695;DHT22;2361;49.540;8.390;2023-06-24T03:42:35;20.20;99.90
4695;DHT22;2361;49.540;8.390;2023-06-24T03:45:03;20.20;99.90
4695;DHT22;2361;49.540;8.390;2023-06-24T03:47:30;20.20;99.90
4695;DHT22;2361;49.540;8.390;2023-06-24T03:49:58;20.20;99.90
4695;DHT22;2361;49.540;8.390;2023-06-24T03:52:25;20.20;99.90
4695;DHT22;2361;49.540;8.390;2023-06-24T03:54:52;20.30;99.90
4695;DHT22;2361;49.540;8.390;2023-06-24T03:57:20;20.40;99.90
4695;DHT22;2361;49.540;8.390;2023-06-24T03:59:47;20.50;99.90
4695;DHT22;2361;49.540;8.390;2023-06-24T04:02:14;20.60;99.80
4695;DHT22;2361;49.540;8.390;2023-06-24T04:04:42;20.80;99.60
4695;DHT22;2361;49.540;8.390;2023-06-24T04:07:09;20.90;99.30
4695;DHT22;2361;49.540;8.390;2023-06-24T04:09:36;21.00;99.20
4695;DHT22;2361;49.540;8.390;2023-06-24T04:12:03;21.00;99.20
4695;DHT22;2361;49.540;8.390;2023-06-24T04:14:30;21.00;99.20
4695;DHT22;2361;49.540;8.390;2023-06-24T04:16:57;21.20;99.00
4695;DHT22;2361;49.540;8.390;2023-06-24T04:19:24;21.30;98.70
4695;DHT22;2361;49.540;8.390;2023-06-24T04:21:51;21.30;98.70
4695;DHT22;2361;49.540;8.390;2023-06-24T04:24:18;21.40;98.70
4695;DHT22;2361;49.540;8.390;2023-06-24T04:26:45;21.40;98.70
4695;DHT22;2361;49.540;8.390;2023-06-24T04:29:12;21.50;98.60
4695;DHT22;2361;49.540;8.390;2023-06-24T04:31:39;21.70;98.60
4695;DHT22;2361;49.540;8.390;2023-06-24T04:34:06;21.90;98.30
4695;DHT22;2361;49.540;8.390;2023-06-24T04:36:33;22.10;98.10
4695;DHT22;2361;49.540;8.390;2023-06-24T04:39:01;22.30;97.60
4695;DHT22;2361;49.540;8.390;2023-06-24T04:41:29;22.40;97.30
4695;DHT22;2361;49.540;8.390;2023-06-24T04:43:56;22.50;97.20
4695;DHT22;2361;49.540;8.390;2023-06-24T04:46:23;22.60;97.00
4695;DHT22;2361;49.540;8.390;2023-06-24T04:48:50;22.70;96.90
4695;DHT22;2361;49.540;8.390;2023-06-24T04:51:17;22.80;96.80
4695;DHT22;2361;49.540;8.390;2023-06-24T04:53:44;23.00;96.60
4695;DHT22;2361;49.540;8.390;2023-06-24T04:56:11;23.10;96.50
4695;DHT22;2361;49.540;8.390;2023-06-24T04:58:38;23.20;96.40
4695;DHT22;2361;49.540;8.390;2023-06-24T05:01:05;23.30;96.40
4695;DHT22;2361;49.540;8.390;2023-06-24T05:03:32;23.40;96.50
4695;DHT22;2361;49.540;8.390;2023-06-24T05:05:59;23.50;96.40
4695;DHT22;2361;49.540;8.390;2023-06-24T05:08:26;23.60;96.30
4695;DHT22;2361;49.540;8.390;2023-06-24T05:10:53;23.80;96.10
4695;DHT22;2361;49.540;8.390;2023-06-24T05:13:21;23.90;95.90
4695;DHT22;2361;49.540;8.390;2023-06-24T05:15:49;24.20;95.70
4695;DHT22;2361;49.540;8.390;2023-06-24T05:18:17;24.40;95.60
4695;DHT22;2361;49.540;8.390;2023-06-24T05:20:44;24.60;95.00
4695;DHT22;2361;49.540;8.390;2023-06-24T05:23:11;24.80;95.00
4695;DHT22;2361;49.540;8.390;2023-06-24T05:25:38;24.90;94.70
4695;DHT22;2361;49.540;8.390;2023-06-24T05:28:05;25.10;94.40
4695;DHT22;2361;49.540;8.390;2023-06-24T05:30:31;25.30;94.20
4695;DHT22;2361;49.540;8.390;2023-06-24T05:32:59;25.40;93.70
4695;DHT22;2361;49.540;8.390;2023-06-24T05:35:26;25.50;93.50
4695;DHT22;2361;49.540;8.390;2023-06-24T05:37:53;25.80;93.20
4695;DHT22;2361;49.540;8.390;2023-06-24T05:40:20;26.00;93.00
4695;DHT22;2361;49.540;8.390;2023-06-24T05:42:47;26.10;92.60
4695;DHT22;2361;49.540;8.390;2023-06-24T05:45:14;26.30;92.40
4695;DHT22;2361;49.540;8.390;2023-06-24T05:47:41;26.40;92.00
4695;DHT22;2361;49.540;8.390;2023-06-24T05:50:09;26.60;91.80
4695;DHT22;2361;49.540;8.390;2023-06-24T05:52:36;26.70;91.10
4695;DHT22;2361;49.540;8.390;2023-06-24T05:55:03;26.80;90.70
4695;DHT22;2361;49.540;8.390;2023-06-24T05:57:30;26.80;90.60
4695;DHT22;2361;49.540;8.390;2023-06-24T05:59:57;27.10;90.20
4695;DHT22;2361;49.540;8.390;2023-06-24T06:02:24;27.30;89.40
4695;DHT22;2361;49.540;8.390;2023-06-24T06:04:51;27.50;88.50
4695;DHT22;2361;49.540;8.390;2023-06-24T06:07:18;27.60;87.90
4695;DHT22;2361;49.540;8.390;2023-06-24T06:09:46;27.60;87.70
4695;DHT22;2361;49.540;8.390;2023-06-24T06:12:12;27.90;87.10
4695;DHT22;2361;49.540;8.390;2023-06-24T06:14:39;28.00;85.80
4695;DHT22;2361;49.540;8.390;2023-06-24T06:17:10;28.20;85.60
4695;DHT22;2361;49.540;8.390;2023-06-24T06:19:37;28.60;85.00
4695;DHT22;2361;49.540;8.390;2023-06-24T06:22:06;29.10;83.40
4695;DHT22;2361;49.540;8.390;2023-06-24T06:24:34;29.40;81.50
4695;DHT22;2361;49.540;8.390;2023-06-24T06:27:01;29.60;80.70
4695;DHT22;2361;49.540;8.390;2023-06-24T06:29:28;29.90;79.20
4695;DHT22;2361;49.540;8.390;2023-06-24T06:31:55;30.20;78.40
4695;DHT22;2361;49.540;8.390;2023-06-24T06:34:23;30.60;77.10
4695;DHT22;2361;49.540;8.390;2023-06-24T06:36:50;31.00;75.80
4695;DHT22;2361;49.540;8.390;2023-06-24T06:39:17;31.50;74.30
4695;DHT22;2361;49.540;8.390;2023-06-24T06:41:44;32.00;72.50
4695;DHT22;2361;49.540;8.390;2023-06-24T06:44:11;32.40;71.10
4695;DHT22;2361;49.540;8.390;2023-06-24T06:46:38;32.90;69.70
4695;DHT22;2361;49.540;8.390;2023-06-24T06:49:05;33.30;68.20
4695;DHT22;2361;49.540;8.390;2023-06-24T06:51:32;33.80;67.10
4695;DHT22;2361;49.540;8.390;2023-06-24T06:54:00;34.20;65.70
4695;DHT22;2361;49.540;8.390;2023-06-24T06:56:28;34.70;64.10
4695;DHT22;2361;49.540;8.390;2023-06-24T06:58:55;35.30;63.00
4695;DHT22;2361;49.540;8.390;2023-06-24T07:01:22;35.60;61.50
4695;DHT22;2361;49.540;8.390;2023-06-24T07:03:49;36.00;60.00
4695;DHT22;2361;49.540;8.390;2023-06-24T07:06:20;36.40;58.20
4695;DHT22;2361;49.540;8.390;2023-06-24T07:08:47;36.50;56.60
4695;DHT22;2361;49.540;8.390;2023-06-24T07:11:14;36.30;56.40
4695;DHT22;2361;49.540;8.390;2023-06-24T07:13:42;36.30;56.30
4695;DHT22;2361;49.540;8.390;2023-06-24T07:16:09;36.50;56.00
4695;DHT22;2361;49.540;8.390;2023-06-24T07:18:36;36.80;55.30
4695;DHT22;2361;49.540;8.390;2023-06-24T07:21:03;36.90;55.30
4695;DHT22;2361;49.540;8.390;2023-06-24T07:23:30;37.10;54.90
4695;DHT22;2361;49.540;8.390;2023-06-24T07:25:57;37.50;54.60
4695;DHT22;2361;49.540;8.390;2023-06-24T07:28:26;38.00;54.00
4695;DHT22;2361;49.540;8.390;2023-06-24T07:30:53;38.50;53.40
4695;DHT22;2361;49.540;8.390;2023-06-24T07:33:20;39.10;52.70
4695;DHT22;2361;49.540;8.390;2023-06-24T07:35:47;39.40;51.90
4695;DHT22;2361;49.540;8.390;2023-06-24T07:38:14;39.50;51.70
4695;DHT22;2361;49.540;8.390;2023-06-24T07:40:41;40.00;51.00
4695;DHT22;2361;49.540;8.390;2023-06-24T07:43:08;40.20;50.40
4695;DHT22;2361;49.540;8.390;2023-06-24T07:45:35;40.40;49.80
4695;DHT22;2361;49.540;8.390;2023-06-24T07:48:02;40.80;49.70
4695;DHT22;2361;49.540;8.390;2023-06-24T07:50:29;41.20;49.20
4695;DHT22;2361;49.540;8.390;2023-06-24T07:52:57;41.60;48.20
4695;DHT22;2361;49.540;8.390;2023-06-24T07:55:24;41.40;48.10
4695;DHT22;2361;49.540;8.390;2023-06-24T07:57:51;41.40;48.10
4695;DHT22;2361;49.540;8.390;2023-06-24T08:00:18;41.70;47.70
4695;DHT22;2361;49.540;8.390;2023-06-24T08:02:45;42.00;47.40
4695;DHT22;2361;49.540;8.390;2023-06-24T08:05:12;42.10;46.80
4695;DHT22;2361;49.540;8.390;2023-06-24T08:07:40;42.40;46.60
4695;DHT22;2361;49.540;8.390;2023-06-24T08:10:07;42.50;46.00
4695;DHT22;2361;49.540;8.390;2023-06-24T08:12:34;42.30;45.90
4695;DHT22;2361;49.540;8.390;2023-06-24T08:15:04;42.60;45.50
4695;DHT22;2361;49.540;8.390;2023-06-24T08:17:35;42.80;45.00
4695;DHT22;2361;49.540;8.390;2023-06-24T08:20:03;42.80;44.50
4695;DHT22;2361;49.540;8.390;2023-06-24T08:22:30;42.70;44.60
4695;DHT22;2361;49.540;8.390;2023-06-24T08:24:58;42.80;44.50
4695;DHT22;2361;49.540;8.390;2023-06-24T08:27:25;43.20;44.00
4695;DHT22;2361;49.540;8.390;2023-06-24T08:29:52;43.50;43.10
4695;DHT22;2361;49.540;8.390;2023-06-24T08:32:19;43.20;43.50
4695;DHT22;2361;49.540;8.390;2023-06-24T08:34:46;43.70;43.20
4695;DHT22;2361;49.540;8.390;2023-06-24T08:37:13;44.20;43.20
4695;DHT22;2361;49.540;8.390;2023-06-24T08:39:40;44.40;42.80
4695;DHT22;2361;49.540;8.390;2023-06-24T08:42:07;44.80;42.40
4695;DHT22;2361;49.540;8.390;2023-06-24T08:44:34;45.20;42.30
4695;DHT22;2361;49.540;8.390;2023-06-24T08:47:01;45.90;41.90
4695;DHT22;2361;49.540;8.390;2023-06-24T08:49:32;46.40;41.30
4695;DHT22;2361;49.540;8.390;2023-06-24T08:52:08;46.10;40.80
4695;DHT22;2361;49.540;8.390;2023-06-24T08:54:41;46.10;40.60
4695;DHT22;2361;49.540;8.390;2023-06-24T08:57:10;46.00;40.60
4695;DHT22;2361;49.540;8.390;2023-06-24T08:59:41;45.90;40.50
4695;DHT22;2361;49.540;8.390;2023-06-24T09:02:09;46.30;40.30
4695;DHT22;2361;49.540;8.390;2023-06-24T09:04:37;46.00;40.10
4695;DHT22;2361;49.540;8.390;2023-06-24T09:07:05;45.60;40.10
4695;DHT22;2361;49.540;8.390;2023-06-24T09:09:42;45.60;39.90
4695;DHT22;2361;49.540;8.390;2023-06-24T09:12:13;45.80;39.90
4695;DHT22;2361;49.540;8.390;2023-06-24T09:14:42;46.10;39.80
4695;DHT22;2361;49.540;8.390;2023-06-24T09:17:14;46.50;39.50
4695;DHT22;2361;49.540;8.390;2023-06-24T09:19:41;47.20;39.30
4695;DHT22;2361;49.540;8.390;2023-06-24T09:22:09;47.10;38.70
4695;DHT22;2361;49.540;8.390;2023-06-24T09:24:48;46.30;38.90
4695;DHT22;2361;49.540;8.390;2023-06-24T09:27:16;46.30;39.00
4695;DHT22;2361;49.540;8.390;2023-06-24T09:29:47;46.30;39.20
4695;DHT22;2361;49.540;8.390;2023-06-24T09:32:14;46.50;38.60
4695;DHT22;2361;49.540;8.390;2023-06-24T09:34:41;46.30;38.70
4695;DHT22;2361;49.540;8.390;2023-06-24T09:37:08;45.60;39.00
4695;DHT22;2361;49.540;8.390;2023-06-24T09:39:40;45.80;38.80
4695;DHT22;2361;49.540;8.390;2023-06-24T09:42:07;46.30;38.40
4695;DHT22;2361;49.540;8.390;2023-06-24T09:44:35;45.50;38.80
4695;DHT22;2361;49.540;8.390;2023-06-24T09:47:02;44.90;38.90
4695;DHT22;2361;49.540;8.390;2023-06-24T09:49:30;45.20;39.00
4695;DHT22;2361;49.540;8.390;2023-06-24T09:51:58;44.80;39.00
4695;DHT22;2361;49.540;8.390;2023-06-24T09:54:27;44.50;39.10
4695;DHT22;2361;49.540;8.390;2023-06-24T09:57:02;44.60;39.10
4695;DHT22;2361;49.540;8.390;2023-06-24T09:59:30;44.60;39.20
4695;DHT22;2361;49.540;8.390;2023-06-24T10:02:00;44.70;39.10
4695;DHT22;2361;49.540;8.390;2023-06-24T10:04:29;44.80;39.30
4695;DHT22;2361;49.540;8.390;2023-06-24T10:06:58;44.30;39.30
4695;DHT22;2361;49.540;8.390;2023-06-24T10:09:25;43.90;39.70
4695;DHT22;2361;49.540;8.390;2023-06-24T10:11:53;43.40;40.00
4695;DHT22;2361;49.540;8.390;2023-06-24T10:14:20;42.50;40.40
4695;DHT22;2361;49.540;8.390;2023-06-24T10:16:47;41.20;41.20
4695;DHT22;2361;49.540;8.390;2023-06-24T10:19:20;39.70;42.00
4695;DHT22;2361;49.540;8.390;2023-06-24T10:21:57;38.40;43.10
4695;DHT22;2361;49.540;8.390;2023-06-24T10:24:38;37.40;43.80
4695;DHT22;2361;49.540;8.390;2023-06-24T10:27:18;36.60;44.20
4695;DHT22;2361;49.540;8.390;2023-06-24T10:29:52;36.00;44.90
4695;DHT22;2361;49.540;8.390;2023-06-24T10:32:22;35.20;45.60
4695;DHT22;2361;49.540;8.390;2023-06-24T10:34:56;34.60;46.20
4695;DHT22;2361;49.540;8.390;2023-06-24T10:37:31;34.00;46.90
4695;DHT22;2361;49.540;8.390;2023-06-24T10:40:00;33.40;46.80
4695;DHT22;2361;49.540;8.390;2023-06-24T10:47:38;32.90;48.90
4695;DHT22;2361;49.540;8.390;2023-06-24T10:50:09;32.90;48.40
4695;DHT22;2361;49.540;8.390;2023-06-24T10:52:39;32.90;48.10
4695;DHT22;2361;49.540;8.390;2023-06-24T10:55:14;32.80;48.70
4695;DHT22;2361;49.540;8.390;2023-06-24T10:57:42;32.40;49.10
4695;DHT22;2361;49.540;8.390;2023-06-24T11:00:12;32.20;49.30
4695;DHT22;2361;49.540;8.390;2023-06-24T11:02:40;32.10;49.70
4695;DHT22;2361;49.540;8.390;2023-06-24T11:05:08;32.10;49.50
4695;DHT22;2361;49.540;8.390;2023-06-24T11:07:37;31.90;49.40
4695;DHT22;2361;49.540;8.390;2023-06-24T11:10:07;31.80;49.60
4695;DHT22;2361;49.540;8.390;2023-06-24T11:12:40;31.90;49.50
4695;DHT22;2361;49.540;8.390;2023-06-24T11:15:12;31.90;49.60
4695;DHT22;2361;49.540;8.390;2023-06-24T11:17:40;31.70;49.80
4695;DHT22;2361;49.540;8.390;2023-06-24T11:20:09;31.50;50.20
4695;DHT22;2361;49.540;8.390;2023-06-24T11:22:41;31.30;50.40
4695;DHT22;2361;49.540;8.390;2023-06-24T11:25:16;30.90;50.80
4695;DHT22;2361;49.540;8.390;2023-06-24T11:27:44;30.70;50.90
4695;DHT22;2361;49.540;8.390;2023-06-24T11:30:12;30.70;50.90
4695;DHT22;2361;49.540;8.390;2023-06-24T11:32:41;30.60;51.10
4695;DHT22;2361;49.540;8.390;2023-06-24T11:35:10;30.30;51.60
4695;DHT22;2361;49.540;8.390;2023-06-24T11:37:41;30.20;51.80
4695;DHT22;2361;49.540;8.390;2023-06-24T11:40:13;30.20;51.80
4695;DHT22;2361;49.540;8.390;2023-06-24T11:42:43;30.20;52.70
4695;DHT22;2361;49.540;8.390;2023-06-24T11:45:13;30.40;52.70
4695;DHT22;2361;49.540;8.390;2023-06-24T11:47:42;30.50;52.60
4695;DHT22;2361;49.540;8.390;2023-06-24T11:50:09;30.60;52.20
4695;DHT22;2361;49.540;8.390;2023-06-24T11:52:41;30.60;52.50
4695;DHT22;2361;49.540;8.390;2023-06-24T11:55:21;30.70;52.20
4695;DHT22;2361;49.540;8.390;2023-06-24T11:57:58;30.80;51.70
4695;DHT22;2361;49.540;8.390;2023-06-24T12:00:34;30.80;51.80
4695;DHT22;2361;49.540;8.390;2023-06-24T12:03:05;30.90;51.80
4695;DHT22;2361;49.540;8.390;2023-06-24T12:05:37;30.90;52.00
4695;DHT22;2361;49.540;8.390;2023-06-24T12:08:07;30.80;51.50
4695;DHT22;2361;49.540;8.390;2023-06-24T12:10:37;30.70;51.70
4695;DHT22;2361;49.540;8.390;2023-06-24T12:13:06;30.70;51.80
4695;DHT22;2361;49.540;8.390;2023-06-24T12:15:35;30.60;52.00
4695;DHT22;2361;49.540;8.390;2023-06-24T12:18:02;30.70;52.40
4695;DHT22;2361;49.540;8.390;2023-06-24T12:20:30;30.70;52.40
4695;DHT22;2361;49.540;8.390;2023-06-24T12:23:00;30.70;52.10
4695;DHT22;2361;49.540;8.390;2023-06-24T12:25:27;30.70;51.80
4695;DHT22;2361;49.540;8.390;2023-06-24T12:27:54;30.60;52.00
4695;DHT22;2361;49.540;8.390;2023-06-24T12:30:22;30.70;51.80
4695;DHT22;2361;49.540;8.390;2023-06-24T12:32:52;30.70;51.40
4695;DHT22;2361;49.540;8.390;2023-06-24T12:35:19;30.60;52.10
4695;DHT22;2361;49.540;8.390;2023-06-24T12:37:46;30.60;52.10
4695;DHT22;2361;49.540;8.390;2023-06-24T12:40:14;30.70;51.80
4695;DHT22;2361;49.540;8.390;2023-06-24T12:42:41;30.70;51.90
4695;DHT22;2361;49.540;8.390;2023-06-24T12:45:08;30.70;51.70
4695;DHT22;2361;49.540;8.390;2023-06-24T12:47:36;30.70;51.60
4695;DHT22;2361;49.540;8.390;2023-06-24T12:50:03;30.70;51.80
4695;DHT22;2361;49.540;8.390;2023-06-24T12:52:35;30.70;51.90
4695;DHT22;2361;49.540;8.390;2023-06-24T12:55:02;30.60;52.40
4695;DHT22;2361;49.540;8.390;2023-06-24T12:57:30;30.50;52.10
4695;DHT22;2361;49.540;8.390;2023-06-24T12:59:57;30.40;52.60
4695;DHT22;2361;49.540;8.390;2023-06-24T13:02:24;30.40;52.20
4695;DHT22;2361;49.540;8.390;2023-06-24T13:04:51;30.30;52.30
4695;DHT22;2361;49.540;8.390;2023-06-24T13:07:18;30.30;52.40
4695;DHT22;2361;49.540;8.390;2023-06-24T13:09:45;30.20;52.40
4695;DHT22;2361;49.540;8.390;2023-06-24T13:12:12;30.30;52.60
4695;DHT22;2361;49.540;8.390;2023-06-24T13:14:39;30.30;52.10
4695;DHT22;2361;49.540;8.390;2023-06-24T13:17:06;30.40;51.90
4695;DHT22;2361;49.540;8.390;2023-06-24T13:19:33;30.30;51.90
4695;DHT22;2361;49.540;8.390;2023-06-24T13:22:00;30.30;52.00
4695;DHT22;2361;49.540;8.390;2023-06-24T13:24:27;30.30;52.70
4695;DHT22;2361;49.540;8.390;2023-06-24T13:26:54;30.30;52.70
4695;DHT22;2361;49.540;8.390;2023-06-24T13:29:22;30.20;52.50
4695;DHT22;2361;49.540;8.390;2023-06-24T13:31:49;30.10;52.30
4695;DHT22;2361;49.540;8.390;2023-06-24T13:34:16;30.00;52.20
4695;DHT22;2361;49.540;8.390;2023-06-24T13:36:43;30.00;52.70
4695;DHT22;2361;49.540;8.390;2023-06-24T13:39:10;30.00;52.70
4695;DHT22;2361;49.540;8.390;2023-06-24T13:41:40;30.10;52.80
4695;DHT22;2361;49.540;8.390;2023-06-24T13:44:07;30.10;52.50
4695;DHT22;2361;49.540;8.390;2023-06-24T13:46:34;30.00;52.70
4695;DHT22;2361;49.540;8.390;2023-06-24T13:49:01;30.00;52.80
4695;DHT22;2361;49.540;8.390;2023-06-24T13:51:32;30.00;51.90
4695;DHT22;2361;49.540;8.390;2023-06-24T13:53:59;29.80;51.80
4695;DHT22;2361;49.540;8.390;2023-06-24T13:56:26;29.70;52.10
4695;DHT22;2361;49.540;8.390;2023-06-24T13:58:54;29.70;52.60
4695;DHT22;2361;49.540;8.390;2023-06-24T14:01:22;29.70;52.80
4695;DHT22;2361;49.540;8.390;2023-06-24T14:03:50;29.70;53.00
4695;DHT22;2361;49.540;8.390;2023-06-24T14:06:20;29.70;53.30
4695;DHT22;2361;49.540;8.390;2023-06-24T14:08:49;29.70;52.90
4695;DHT22;2361;49.540;8.390;2023-06-24T14:11:17;29.80;52.80
4695;DHT22;2361;49.540;8.390;2023-06-24T14:13:44;29.70;52.40
4695;DHT22;2361;49.540;8.390;2023-06-24T14:16:12;29.70;53.10
4695;DHT22;2361;49.540;8.390;2023-06-24T14:18:39;29.70;53.20
4695;DHT22;2361;49.540;8.390;2023-06-24T14:21:06;29.60;52.60
4695;DHT22;2361;49.540;8.390;2023-06-24T14:23:34;29.60;52.70
4695;DHT22;2361;49.540;8.390;2023-06-24T14:26:02;29.60;52.50
4695;DHT22;2361;49.540;8.390;2023-06-24T14:28:30;29.50;52.60
4695;DHT22;2361;49.540;8.390;2023-06-24T14:30:57;29.50;52.60
4695;DHT22;2361;49.540;8.390;2023-06-24T14:33:24;29.40;52.60
4695;DHT22;2361;49.540;8.390;2023-06-24T14:35:51;29.40;52.80
4695;DHT22;2361;49.540;8.390;2023-06-24T14:38:18;29.50;52.50
4695;DHT22;2361;49.540;8.390;2023-06-24T14:40:45;29.50;52.20
4695;DHT22;2361;49.540;8.390;2023-06-24T14:43:13;29.50;52.70
4695;DHT22;2361;49.540;8.390;2023-06-24T14:45:40;29.40;53.30
4695;DHT22;2361;49.540;8.390;2023-06-24T14:48:07;29.50;52.60
4695;DHT22;2361;49.540;8.390;2023-06-24T14:50:34;29.50;52.70
4695;DHT22;2361;49.540;8.390;2023-06-24T14:53:02;29.40;52.70
4695;DHT22;2361;49.540;8.390;2023-06-24T14:55:29;29.40;53.10
4695;DHT22;2361;49.540;8.390;2023-06-24T14:57:56;29.40;53.30
4695;DHT22;2361;49.540;8.390;2023-06-24T15:00:24;29.40;52.70
4695;DHT22;2361;49.540;8.390;2023-06-24T15:02:50;29.40;52.70
4695;DHT22;2361;49.540;8.390;2023-06-24T15:05:18;29.50;52.40
4695;DHT22;2361;49.540;8.390;2023-06-24T15:07:45;29.50;52.30
4695;DHT22;2361;49.540;8.390;2023-06-24T15:10:12;29.40;52.30
4695;DHT22;2361;49.540;8.390;2023-06-24T15:12:39;29.50;52.70
4695;DHT22;2361;49.540;8.390;2023-06-24T15:15:06;29.40;53.00
4695;DHT22;2361;49.540;8.390;2023-06-24T15:17:34;29.40;53.70
4695;DHT22;2361;49.540;8.390;2023-06-24T15:20:02;29.30;53.20
4695;DHT22;2361;49.540;8.390;2023-06-24T15:22:30;29.30;53.10
4695;DHT22;2361;49.540;8.390;2023-06-24T15:24:57;29.30;53.00
4695;DHT22;2361;49.540;8.390;2023-06-24T15:27:24;29.40;53.00
4695;DHT22;2361;49.540;8.390;2023-06-24T15:29:51;29.40;53.20
4695;DHT22;2361;49.540;8.390;2023-06-24T15:32:18;29.40;52.20
4695;DHT22;2361;49.540;8.390;2023-06-24T15:34:45;29.40;52.90
4695;DHT22;2361;49.540;8.390;2023-06-24T15:37:12;29.30;52.80
4695;DHT22;2361;49.540;8.390;2023-06-24T15:39:41;29.40;53.40
4695;DHT22;2361;49.540;8.390;2023-06-24T15:42:08;29.40;53.30
4695;DHT22;2361;49.540;8.390;2023-06-24T15:44:37;29.30;53.50
4695;DHT22;2361;49.540;8.390;2023-06-24T15:47:05;29.30;52.90
4695;DHT22;2361;49.540;8.390;2023-06-24T15:49:32;29.30;53.00
4695;DHT22;2361;49.540;8.390;2023-06-24T15:51:59;29.30;53.40
4695;DHT22;2361;49.540;8.390;2023-06-24T15:54:26;29.20;52.70
4695;DHT22;2361;49.540;8.390;2023-06-24T15:56:53;29.20;54.10
4695;DHT22;2361;49.540;8.390;2023-06-24T15:59:20;29.20;53.90
4695;DHT22;2361;49.540;8.390;2023-06-24T16:01:47;29.30;53.50
4695;DHT22;2361;49.540;8.390;2023-06-24T16:04:14;29.20;54.80
4695;DHT22;2361;49.540;8.390;2023-06-24T16:06:41;29.20;53.90
4695;DHT22;2361;49.540;8.390;2023-06-24T16:09:08;29.20;53.50
4695;DHT22;2361;49.540;8.390;2023-06-24T16:11:35;29.10;55.00
4695;DHT22;2361;49.540;8.390;2023-06-24T16:14:02;29.10;53.70
4695;DHT22;2361;49.540;8.390;2023-06-24T16:16:29;29.10;53.70
4695;DHT22;2361;49.540;8.390;2023-06-24T16:18:56;29.10;53.90
4695;DHT22;2361;49.540;8.390;2023-06-24T16:21:23;29.20;53.40
4695;DHT22;2361;49.540;8.390;2023-06-24T16:23:50;29.10;53.10